sensor_id;sensor_type;location;lat;lon;timestamp;pressure;altitude;pressure_sealevel;temperature;humidity
43420;BME280;29017;51.514;-0.178;2023-04-30T00:02:09;101827.66;;;14.01;83.53
43420;BME280;29017;51.514;-0.178;2023-04-30T00:04:36;101828.63;;;14.00;83.37
43420;BME280;29017;51.514;-0.178;2023-04-30T00:07:03;101826.13;;;13.98;83.55
43420;BME280;29017;51.514;-0.178;2023-04-30T00:09:30;101827.41;;;13.94;82.82
43420;BME280;29017;51.514;-0.178;2023-04-30T00:11:56;101817.94;;;13.92;82.55
43420;BME280;29017;51.514;-0.178;2023-04-30T00:14:23;101823.41;;;13.90;81.60
43420;BME280;29017;51.514;-0.178;2023-04-30T00:16:50;101820.22;;;13.87;81.50
43420;BME280;29017;51.514;-0.178;2023-04-30T00:19:17;101825.50;;;13.87;81.73
43420;BME280;29017;51.514;-0.178;2023-04-30T00:21:44;101819.69;;;13.83;81.66
43420;BME280;29017;51.514;-0.178;2023-04-30T00:24:11;101820.66;;;13.82;81.89
43420;BME280;29017;51.514;-0.178;2023-04-30T00:26:38;101826.97;;;13.81;81.54
43420;BME280;29017;51.514;-0.178;2023-04-30T00:29:05;101828.09;;;13.79;80.68
43420;BME280;29017;51.514;-0.178;2023-04-30T00:31:32;101826.41;;;13.78;79.81
43420;BME280;29017;51.514;-0.178;2023-04-30T00:33:59;101825.56;;;13.77;78.54
43420;BME280;29017;51.514;-0.178;2023-04-30T00:36:26;101825.19;;;13.72;78.10
43420;BME280;29017;51.514;-0.178;2023-04-30T00:38:53;101816.41;;;13.71;79.78
43420;BME280;29017;51.514;-0.178;2023-04-30T00:41:19;101810.31;;;13.71;79.51
43420;BME280;29017;51.514;-0.178;2023-04-30T00:43:46;101813.94;;;13.70;80.76
43420;BME280;29017;51.514;-0.178;2023-04-30T00:46:13;101818.84;;;13.65;80.30
43420;BME280;29017;51.514;-0.178;2023-04-30T00:48:40;101818.28;;;13.61;80.79
43420;BME280;29017;51.514;-0.178;2023-04-30T00:51:07;101819.44;;;13.59;80.19
43420;BME280;29017;51.514;-0.178;2023-04-30T00:53:34;101814.44;;;13.56;78.98
43420;BME280;29017;51.514;-0.178;2023-04-30T00:56:01;101819.88;;;13.54;78.74
43420;BME280;29017;51.514;-0.178;2023-04-30T00:58:29;101812.09;;;13.53;79.94
43420;BME280;29017;51.514;-0.178;2023-04-30T01:01:00;101815.56;;;13.53;80.69
43420;BME280;29017;51.514;-0.178;2023-04-30T01:03:27;101817.38;;;13.53;80.83
43420;BME280;29017;51.514;-0.178;2023-04-30T01:05:54;101816.69;;;13.51;79.60
43420;BME280;29017;51.514;-0.178;2023-04-30T01:08:21;101804.91;;;13.45;78.95
43420;BME280;29017;51.514;-0.178;2023-04-30T01:10:51;101804.19;;;13.43;78.95
43420;BME280;29017;51.514;-0.178;2023-04-30T01:15:58;101803.28;;;13.35;78.38
43420;BME280;29017;51.514;-0.178;2023-04-30T01:18:28;101801.75;;;13.32;78.71
43420;BME280;29017;51.514;-0.178;2023-04-30T01:20:58;101807.19;;;13.31;78.50
43420;BME280;29017;51.514;-0.178;2023-04-30T01:28:41;101802.06;;;13.29;79.11
43420;BME280;29017;51.514;-0.178;2023-04-30T01:31:12;101804.00;;;13.27;78.48
43420;BME280;29017;51.514;-0.178;2023-04-30T01:33:40;101800.69;;;13.25;78.19
43420;BME280;29017;51.514;-0.178;2023-04-30T01:36:12;101803.78;;;13.20;79.08
43420;BME280;29017;51.514;-0.178;2023-04-30T01:43:49;101801.28;;;13.09;81.90
43420;BME280;29017;51.514;-0.178;2023-04-30T01:46:23;101805.03;;;13.07;80.72
43420;BME280;29017;51.514;-0.178;2023-04-30T01:51:30;101808.66;;;12.96;79.69
43420;BME280;29017;51.514;-0.178;2023-04-30T01:54:00;101804.22;;;12.97;81.03
43420;BME280;29017;51.514;-0.178;2023-04-30T01:56:35;101804.22;;;12.97;81.68
43420;BME280;29017;51.514;-0.178;2023-04-30T01:59:04;101791.97;;;12.96;82.30
43420;BME280;29017;51.514;-0.178;2023-04-30T02:01:31;101788.94;;;12.91;81.42
43420;BME280;29017;51.514;-0.178;2023-04-30T02:03:59;101791.75;;;12.89;81.28
43420;BME280;29017;51.514;-0.178;2023-04-30T02:06:26;101790.75;;;12.90;81.18
43420;BME280;29017;51.514;-0.178;2023-04-30T02:08:54;101786.59;;;12.88;80.82
43420;BME280;29017;51.514;-0.178;2023-04-30T02:11:22;101789.25;;;12.88;81.16
43420;BME280;29017;51.514;-0.178;2023-04-30T02:13:50;101790.91;;;12.89;82.19
43420;BME280;29017;51.514;-0.178;2023-04-30T02:16:17;101794.53;;;12.88;81.95
43420;BME280;29017;51.514;-0.178;2023-04-30T02:18:44;101787.03;;;12.83;82.36
43420;BME280;29017;51.514;-0.178;2023-04-30T02:21:11;101794.81;;;12.84;81.87
43420;BME280;29017;51.514;-0.178;2023-04-30T02:23:38;101794.00;;;12.84;81.29
43420;BME280;29017;51.514;-0.178;2023-04-30T02:26:04;101788.97;;;12.81;80.95
43420;BME280;29017;51.514;-0.178;2023-04-30T02:28:31;101802.19;;;12.81;80.82
43420;BME280;29017;51.514;-0.178;2023-04-30T02:30:58;101792.75;;;12.78;80.98
43420;BME280;29017;51.514;-0.178;2023-04-30T02:33:25;101790.13;;;12.78;81.86
43420;BME280;29017;51.514;-0.178;2023-04-30T02:35:52;101791.78;;;12.79;83.59
43420;BME280;29017;51.514;-0.178;2023-04-30T02:38:20;101787.59;;;12.77;82.79
43420;BME280;29017;51.514;-0.178;2023-04-30T02:40:47;101782.47;;;12.75;82.34
43420;BME280;29017;51.514;-0.178;2023-04-30T02:43:14;101782.75;;;12.72;81.05
43420;BME280;29017;51.514;-0.178;2023-04-30T02:45:41;101781.22;;;12.70;80.87
43420;BME280;29017;51.514;-0.178;2023-04-30T02:48:08;101778.03;;;12.66;81.45
43420;BME280;29017;51.514;-0.178;2023-04-30T02:50:35;101775.41;;;12.66;82.89
43420;BME280;29017;51.514;-0.178;2023-04-30T02:53:01;101768.59;;;12.64;82.74
43420;BME280;29017;51.514;-0.178;2023-04-30T02:55:28;101771.25;;;12.64;82.30
43420;BME280;29017;51.514;-0.178;2023-04-30T02:57:56;101772.34;;;12.61;82.91
43420;BME280;29017;51.514;-0.178;2023-04-30T03:00:23;101775.00;;;12.61;83.23
43420;BME280;29017;51.514;-0.178;2023-04-30T03:02:50;101775.28;;;12.58;81.91
43420;BME280;29017;51.514;-0.178;2023-04-30T03:05:17;101766.66;;;12.56;82.33
43420;BME280;29017;51.514;-0.178;2023-04-30T03:07:44;101772.09;;;12.55;82.36
43420;BME280;29017;51.514;-0.178;2023-04-30T03:10:11;101774.72;;;12.55;82.13
43420;BME280;29017;51.514;-0.178;2023-04-30T03:12:37;101774.03;;;12.53;82.92
43420;BME280;29017;51.514;-0.178;2023-04-30T03:15:05;101769.88;;;12.50;83.13
43420;BME280;29017;51.514;-0.178;2023-04-30T03:17:32;101771.97;;;12.47;82.41
43420;BME280;29017;51.514;-0.178;2023-04-30T03:19:59;101772.94;;;12.46;81.88
43420;BME280;29017;51.514;-0.178;2023-04-30T03:22:26;101777.38;;;12.45;81.67
43420;BME280;29017;51.514;-0.178;2023-04-30T03:24:52;101767.13;;;12.42;81.67
43420;BME280;29017;51.514;-0.178;2023-04-30T03:27:19;101773.22;;;12.42;82.30
43420;BME280;29017;51.514;-0.178;2023-04-30T03:29:46;101774.19;;;12.41;82.82
43420;BME280;29017;51.514;-0.178;2023-04-30T03:32:14;101778.09;;;12.37;82.17
43420;BME280;29017;51.514;-0.178;2023-04-30T03:34:41;101771.28;;;12.35;82.69
43420;BME280;29017;51.514;-0.178;2023-04-30T03:37:08;101771.44;;;12.33;82.04
43420;BME280;29017;51.514;-0.178;2023-04-30T03:39:35;101767.25;;;12.31;81.26
43420;BME280;29017;51.514;-0.178;2023-04-30T03:42:01;101766.44;;;12.30;82.28
43420;BME280;29017;51.514;-0.178;2023-04-30T03:44:29;101768.09;;;12.31;82.44
43420;BME280;29017;51.514;-0.178;2023-04-30T03:46:55;101763.66;;;12.32;83.73
43420;BME280;29017;51.514;-0.178;2023-04-30T03:49:22;101767.97;;;12.33;83.41
43420;BME280;29017;51.514;-0.178;2023-04-30T03:51:49;101769.06;;;12.30;83.38
43420;BME280;29017;51.514;-0.178;2023-04-30T03:54:16;101770.03;;;12.29;82.38
43420;BME280;29017;51.514;-0.178;2023-04-30T03:56:43;101766.19;;;12.24;81.75
43420;BME280;29017;51.514;-0.178;2023-04-30T03:59:10;101770.03;;;12.20;82.29
43420;BME280;29017;51.514;-0.178;2023-04-30T04:01:37;101766.56;;;12.19;83.23
43420;BME280;29017;51.514;-0.178;2023-04-30T04:04:04;101761.28;;;12.19;83.70
43420;BME280;29017;51.514;-0.178;2023-04-30T04:06:31;101765.91;;;12.17;83.78
43420;BME280;29017;51.514;-0.178;2023-04-30T04:08:58;101770.47;;;12.15;83.65
43420;BME280;29017;51.514;-0.178;2023-04-30T04:11:24;101770.47;;;12.15;82.51
43420;BME280;29017;51.514;-0.178;2023-04-30T04:13:51;101768.97;;;12.13;82.08
43420;BME280;29017;51.514;-0.178;2023-04-30T04:16:18;101763.69;;;12.13;82.25
43420;BME280;29017;51.514;-0.178;2023-04-30T04:18:45;101763.81;;;12.11;83.08
43420;BME280;29017;51.514;-0.178;2023-04-30T04:21:12;101763.09;;;12.09;82.90
43420;BME280;29017;51.514;-0.178;2023-04-30T04:23:39;101763.53;;;12.05;83.25
43420;BME280;29017;51.514;-0.178;2023-04-30T04:26:09;101760.88;;;12.05;83.31
43420;BME280;29017;51.514;-0.178;2023-04-30T04:28:36;101757.56;;;12.03;83.47
43420;BME280;29017;51.514;-0.178;2023-04-30T04:31:04;101763.69;;;12.03;83.04
43420;BME280;29017;51.514;-0.178;2023-04-30T04:33:31;101765.75;;;11.99;82.68
43420;BME280;29017;51.514;-0.178;2023-04-30T04:35:58;101759.38;;;12.02;83.45
43420;BME280;29017;51.514;-0.178;2023-04-30T04:38:25;101768.97;;;12.03;84.04
43420;BME280;29017;51.514;-0.178;2023-04-30T04:40:52;101776.72;;;12.05;83.66
43420;BME280;29017;51.514;-0.178;2023-04-30T04:43:22;101772.44;;;12.04;84.20
43420;BME280;29017;51.514;-0.178;2023-04-30T04:45:49;101768.38;;;11.99;83.76
43420;BME280;29017;51.514;-0.178;2023-04-30T04:48:16;101767.56;;;11.99;83.33
43420;BME280;29017;51.514;-0.178;2023-04-30T04:50:42;101761.31;;;12.00;82.69
43420;BME280;29017;51.514;-0.178;2023-04-30T04:53:09;101757.84;;;11.99;83.37
43420;BME280;29017;51.514;-0.178;2023-04-30T04:55:36;101756.31;;;11.97;83.82
43420;BME280;29017;51.514;-0.178;2023-04-30T04:58:03;101765.91;;;11.98;83.86
43420;BME280;29017;51.514;-0.178;2023-04-30T05:00:30;101766.59;;;12.00;84.40
43420;BME280;29017;51.514;-0.178;2023-04-30T05:02:57;101766.59;;;12.00;83.70
43420;BME280;29017;51.514;-0.178;2023-04-30T05:05:24;101773.41;;;12.03;83.30
43420;BME280;29017;51.514;-0.178;2023-04-30T05:07:51;101766.75;;;11.98;82.76
43420;BME280;29017;51.514;-0.178;2023-04-30T05:10:20;101760.22;;;12.03;84.05
43420;BME280;29017;51.514;-0.178;2023-04-30T05:12:47;101768.66;;;12.06;84.35
43420;BME280;29017;51.514;-0.178;2023-04-30T05:15:14;101764.22;;;12.07;84.26
43420;BME280;29017;51.514;-0.178;2023-04-30T05:17:41;101765.06;;;12.07;84.28
43420;BME280;29017;51.514;-0.178;2023-04-30T05:20:08;101763.25;;;12.08;84.74
43420;BME280;29017;51.514;-0.178;2023-04-30T05:22:35;101762.31;;;12.09;83.98
43420;BME280;29017;51.514;-0.178;2023-04-30T05:25:02;101756.03;;;12.10;84.06
43420;BME280;29017;51.514;-0.178;2023-04-30T05:27:29;101764.78;;;12.10;84.08
43420;BME280;29017;51.514;-0.178;2023-04-30T05:29:56;101765.19;;;12.15;84.61
43420;BME280;29017;51.514;-0.178;2023-04-30T05:32:23;101760.63;;;12.17;84.68
43420;BME280;29017;51.514;-0.178;2023-04-30T05:34:50;101767.16;;;12.23;84.98
43420;BME280;29017;51.514;-0.178;2023-04-30T05:37:17;101767.81;;;12.25;84.72
43420;BME280;29017;51.514;-0.178;2023-04-30T05:39:46;101768.81;;;12.24;83.73
43420;BME280;29017;51.514;-0.178;2023-04-30T05:42:12;101763.38;;;12.25;82.96
43420;BME280;29017;51.514;-0.178;2023-04-30T05:44:40;101772.00;;;12.27;83.06
43420;BME280;29017;51.514;-0.178;2023-04-30T05:47:06;101768.22;;;12.30;83.85
43420;BME280;29017;51.514;-0.178;2023-04-30T05:49:36;101775.06;;;12.32;83.50
43420;BME280;29017;51.514;-0.178;2023-04-30T05:52:02;101767.53;;;12.37;83.52
43420;BME280;29017;51.514;-0.178;2023-04-30T05:54:29;101773.22;;;12.42;83.81
43420;BME280;29017;51.514;-0.178;2023-04-30T05:56:56;101775.44;;;12.47;82.83
43420;BME280;29017;51.514;-0.178;2023-04-30T05:59:23;101780.59;;;12.49;82.31
43420;BME280;29017;51.514;-0.178;2023-04-30T06:01:51;101772.78;;;12.57;82.11
43420;BME280;29017;51.514;-0.178;2023-04-30T06:04:18;101774.03;;;12.62;81.80
43420;BME280;29017;51.514;-0.178;2023-04-30T06:06:45;101777.06;;;12.67;82.17
43420;BME280;29017;51.514;-0.178;2023-04-30T06:09:12;101771.88;;;12.75;83.04
43420;BME280;29017;51.514;-0.178;2023-04-30T06:11:39;101768.41;;;12.84;82.87
43420;BME280;29017;51.514;-0.178;2023-04-30T06:14:08;101766.97;;;12.90;80.81
43420;BME280;29017;51.514;-0.178;2023-04-30T06:16:35;101768.06;;;12.97;80.42
43420;BME280;29017;51.514;-0.178;2023-04-30T06:19:03;101770.13;;;13.03;79.83
43420;BME280;29017;51.514;-0.178;2023-04-30T06:21:30;101770.66;;;13.16;80.54
43420;BME280;29017;51.514;-0.178;2023-04-30T06:23:57;101769.53;;;13.46;79.74
43420;BME280;29017;51.514;-0.178;2023-04-30T06:26:24;101775.31;;;13.77;79.55
43420;BME280;29017;51.514;-0.178;2023-04-30T06:28:51;101776.09;;;14.05;78.37
43420;BME280;29017;51.514;-0.178;2023-04-30T06:31:17;101782.78;;;14.35;75.26
43420;BME280;29017;51.514;-0.178;2023-04-30T06:33:44;101782.81;;;14.52;73.81
43420;BME280;29017;51.514;-0.178;2023-04-30T06:36:11;101783.34;;;14.64;73.63
43420;BME280;29017;51.514;-0.178;2023-04-30T06:38:39;101780.59;;;14.74;73.70
43420;BME280;29017;51.514;-0.178;2023-04-30T06:41:06;101781.19;;;14.85;73.62
43420;BME280;29017;51.514;-0.178;2023-04-30T06:43:32;101778.91;;;14.98;72.47
43420;BME280;29017;51.514;-0.178;2023-04-30T06:45:59;101783.31;;;15.16;71.29
43420;BME280;29017;51.514;-0.178;2023-04-30T06:48:26;101779.03;;;15.57;69.24
43420;BME280;29017;51.514;-0.178;2023-04-30T06:50:53;101786.41;;;16.03;66.98
43420;BME280;29017;51.514;-0.178;2023-04-30T06:53:20;101790.91;;;16.19;65.77
43420;BME280;29017;51.514;-0.178;2023-04-30T06:55:47;101792.91;;;16.09;66.67
43420;BME280;29017;51.514;-0.178;2023-04-30T06:58:14;101790.22;;;16.01;67.53
43420;BME280;29017;51.514;-0.178;2023-04-30T07:00:41;101792.38;;;15.97;68.21
43420;BME280;29017;51.514;-0.178;2023-04-30T07:03:08;101794.00;;;15.90;67.39
43420;BME280;29017;51.514;-0.178;2023-04-30T07:05:35;101799.84;;;16.02;67.35
43420;BME280;29017;51.514;-0.178;2023-04-30T07:08:02;101795.91;;;16.30;66.53
43420;BME280;29017;51.514;-0.178;2023-04-30T07:10:29;101800.38;;;16.54;65.43
43420;BME280;29017;51.514;-0.178;2023-04-30T07:12:57;101795.22;;;16.52;65.15
43420;BME280;29017;51.514;-0.178;2023-04-30T07:15:25;101793.88;;;16.48;65.99
43420;BME280;29017;51.514;-0.178;2023-04-30T07:17:52;101798.72;;;16.45;65.45
43420;BME280;29017;51.514;-0.178;2023-04-30T07:20:19;101793.06;;;16.40;66.65
43420;BME280;29017;51.514;-0.178;2023-04-30T07:22:45;101793.56;;;16.35;66.28
43420;BME280;29017;51.514;-0.178;2023-04-30T07:25:12;101786.06;;;16.31;65.65
43420;BME280;29017;51.514;-0.178;2023-04-30T07:27:39;101792.09;;;16.24;66.02
43420;BME280;29017;51.514;-0.178;2023-04-30T07:30:07;101789.44;;;16.24;67.05
43420;BME280;29017;51.514;-0.178;2023-04-30T07:32:36;101792.09;;;16.24;67.68
43420;BME280;29017;51.514;-0.178;2023-04-30T07:35:04;101790.59;;;16.30;66.77
43420;BME280;29017;51.514;-0.178;2023-04-30T07:37:31;101784.09;;;16.33;66.65
43420;BME280;29017;51.514;-0.178;2023-04-30T07:40:01;101786.06;;;16.31;67.06
43420;BME280;29017;51.514;-0.178;2023-04-30T07:42:29;101772.63;;;16.32;66.10
43420;BME280;29017;51.514;-0.178;2023-04-30T07:44:55;101778.63;;;16.58;65.69
43420;BME280;29017;51.514;-0.178;2023-04-30T07:47:23;101783.50;;;17.02;64.81
43420;BME280;29017;51.514;-0.178;2023-04-30T07:49:51;101780.50;;;17.44;63.19
43420;BME280;29017;51.514;-0.178;2023-04-30T07:52:18;101784.25;;;17.88;62.63
43420;BME280;29017;51.514;-0.178;2023-04-30T07:54:48;101787.19;;;18.02;61.79
43420;BME280;29017;51.514;-0.178;2023-04-30T07:57:15;101793.28;;;18.10;60.64
43420;BME280;29017;51.514;-0.178;2023-04-30T07:59:42;101788.31;;;18.07;60.32
43420;BME280;29017;51.514;-0.178;2023-04-30T08:02:09;101789.44;;;18.13;60.32
43420;BME280;29017;51.514;-0.178;2023-04-30T08:04:36;101791.56;;;18.17;60.52
43420;BME280;29017;51.514;-0.178;2023-04-30T08:07:03;101797.53;;;18.19;60.93
43420;BME280;29017;51.514;-0.178;2023-04-30T08:09:30;101792.56;;;18.16;59.85
43420;BME280;29017;51.514;-0.178;2023-04-30T08:11:57;101793.03;;;18.20;59.75
43420;BME280;29017;51.514;-0.178;2023-04-30T08:14:24;101792.50;;;18.24;60.26
43420;BME280;29017;51.514;-0.178;2023-04-30T08:16:51;101788.78;;;18.33;60.24
43420;BME280;29017;51.514;-0.178;2023-04-30T08:19:18;101785.97;;;18.27;59.46
43420;BME280;29017;51.514;-0.178;2023-04-30T08:21:45;101794.09;;;18.11;59.66
43420;BME280;29017;51.514;-0.178;2023-04-30T08:24:12;101788.84;;;18.03;60.24
43420;BME280;29017;51.514;-0.178;2023-04-30T08:26:39;101796.19;;;18.01;60.99
43420;BME280;29017;51.514;-0.178;2023-04-30T08:29:06;101788.19;;;18.01;61.44
43420;BME280;29017;51.514;-0.178;2023-04-30T08:31:34;101786.53;;;18.00;61.26
43420;BME280;29017;51.514;-0.178;2023-04-30T08:34:01;101788.72;;;17.96;60.99
43420;BME280;29017;51.514;-0.178;2023-04-30T08:36:28;101784.25;;;17.88;60.68
43420;BME280;29017;51.514;-0.178;2023-04-30T08:38:55;101784.69;;;17.77;60.97
43420;BME280;29017;51.514;-0.178;2023-04-30T08:41:24;101780.69;;;17.73;62.33
43420;BME280;29017;51.514;-0.178;2023-04-30T08:43:51;101776.28;;;17.66;62.08
43420;BME280;29017;51.514;-0.178;2023-04-30T08:46:19;101776.13;;;17.59;61.49
43420;BME280;29017;51.514;-0.178;2023-04-30T08:48:46;101774.44;;;17.58;62.10
43420;BME280;29017;51.514;-0.178;2023-04-30T08:51:14;101772.31;;;17.62;61.63
43420;BME280;29017;51.514;-0.178;2023-04-30T08:53:42;101776.28;;;17.66;61.41
43420;BME280;29017;51.514;-0.178;2023-04-30T08:56:10;101766.09;;;17.69;60.89
43420;BME280;29017;51.514;-0.178;2023-04-30T08:58:37;101778.03;;;17.73;60.63
43420;BME280;29017;51.514;-0.178;2023-04-30T09:01:05;101771.69;;;17.82;60.43
43420;BME280;29017;51.514;-0.178;2023-04-30T09:03:36;101774.28;;;17.90;59.33
43420;BME280;29017;51.514;-0.178;2023-04-30T09:06:03;101782.03;;;18.00;58.72
43420;BME280;29017;51.514;-0.178;2023-04-30T09:13:44;101761.88;;;18.43;55.75
43420;BME280;29017;51.514;-0.178;2023-04-30T09:16:11;101766.44;;;18.49;55.61
43420;BME280;29017;51.514;-0.178;2023-04-30T09:18:38;101760.63;;;18.54;54.99
43420;BME280;29017;51.514;-0.178;2023-04-30T09:21:07;101766.41;;;18.57;54.09
43420;BME280;29017;51.514;-0.178;2023-04-30T09:23:35;101766.53;;;18.64;54.04
43420;BME280;29017;51.514;-0.178;2023-04-30T09:26:02;101761.47;;;18.69;54.67
43420;BME280;29017;51.514;-0.178;2023-04-30T09:28:29;101759.44;;;18.71;53.36
43420;BME280;29017;51.514;-0.178;2023-04-30T09:30:57;101759.81;;;18.83;53.50
43420;BME280;29017;51.514;-0.178;2023-04-30T09:33:24;101751.53;;;18.92;52.10
43420;BME280;29017;51.514;-0.178;2023-04-30T09:35:51;101750.16;;;18.96;52.27
43420;BME280;29017;51.514;-0.178;2023-04-30T09:40:57;101745.34;;;19.06;52.21
43420;BME280;29017;51.514;-0.178;2023-04-30T09:43:24;101747.84;;;19.08;51.86
43420;BME280;29017;51.514;-0.178;2023-04-30T09:45:51;101744.78;;;19.11;51.42
43420;BME280;29017;51.514;-0.178;2023-04-30T09:48:21;101750.13;;;19.11;51.44
43420;BME280;29017;51.514;-0.178;2023-04-30T09:50:49;101743.59;;;19.13;49.92
43420;BME280;29017;51.514;-0.178;2023-04-30T09:53:18;101746.06;;;19.15;50.27
43420;BME280;29017;51.514;-0.178;2023-04-30T09:55:47;101751.22;;;19.16;50.39
43420;BME280;29017;51.514;-0.178;2023-04-30T09:58:16;101742.78;;;19.13;50.45
43420;BME280;29017;51.514;-0.178;2023-04-30T10:00:44;101746.72;;;19.17;50.35
43420;BME280;29017;51.514;-0.178;2023-04-30T10:03:12;101742.22;;;19.17;49.92
43420;BME280;29017;51.514;-0.178;2023-04-30T10:05:41;101738.91;;;19.15;51.39
43420;BME280;29017;51.514;-0.178;2023-04-30T10:08:09;101748.56;;;19.16;50.63
43420;BME280;29017;51.514;-0.178;2023-04-30T10:10:39;101733.47;;;19.23;51.19
43420;BME280;29017;51.514;-0.178;2023-04-30T10:13:09;101739.91;;;19.29;50.22
43420;BME280;29017;51.514;-0.178;2023-04-30T10:15:38;101733.34;;;19.32;50.60
43420;BME280;29017;51.514;-0.178;2023-04-30T10:18:09;101733.53;;;19.30;50.16
43420;BME280;29017;51.514;-0.178;2023-04-30T10:20:37;101727.84;;;19.33;49.34
43420;BME280;29017;51.514;-0.178;2023-04-30T10:23:04;101736.00;;;19.32;50.25
43420;BME280;29017;51.514;-0.178;2023-04-30T10:25:32;101725.16;;;19.33;49.99
43420;BME280;29017;51.514;-0.178;2023-04-30T10:28:00;101732.16;;;19.34;49.19
43420;BME280;29017;51.514;-0.178;2023-04-30T10:30:30;101726.34;;;19.31;49.99
43420;BME280;29017;51.514;-0.178;2023-04-30T10:35:26;101728.84;;;19.32;50.37
43420;BME280;29017;51.514;-0.178;2023-04-30T10:40:38;101720.44;;;19.35;51.15
43420;BME280;29017;51.514;-0.178;2023-04-30T10:43:05;101715.66;;;19.31;51.16
43420;BME280;29017;51.514;-0.178;2023-04-30T10:45:33;101709.31;;;19.32;51.54
43420;BME280;29017;51.514;-0.178;2023-04-30T10:48:01;101712.16;;;19.30;51.55
43420;BME280;29017;51.514;-0.178;2023-04-30T10:50:29;101702.31;;;19.31;51.80
43420;BME280;29017;51.514;-0.178;2023-04-30T10:55:32;101703.38;;;19.30;51.12
43420;BME280;29017;51.514;-0.178;2023-04-30T10:58:17;101692.94;;;19.35;51.61
43420;BME280;29017;51.514;-0.178;2023-04-30T11:03:25;101698.44;;;19.48;51.67
43420;BME280;29017;51.514;-0.178;2023-04-30T11:05:53;101688.09;;;19.59;52.29
43420;BME280;29017;51.514;-0.178;2023-04-30T11:10:58;101685.28;;;19.68;51.63
43420;BME280;29017;51.514;-0.178;2023-04-30T11:13:27;101682.81;;;19.66;51.28
43420;BME280;29017;51.514;-0.178;2023-04-30T11:15:54;101679.34;;;19.66;51.04
43420;BME280;29017;51.514;-0.178;2023-04-30T11:18:28;101669.66;;;19.64;51.51
43420;BME280;29017;51.514;-0.178;2023-04-30T11:20:55;101678.03;;;19.61;52.22
43420;BME280;29017;51.514;-0.178;2023-04-30T11:23:23;101671.25;;;19.59;51.69
43420;BME280;29017;51.514;-0.178;2023-04-30T11:26:05;101668.00;;;19.63;52.78
43420;BME280;29017;51.514;-0.178;2023-04-30T11:28:33;101671.31;;;19.66;51.92
43420;BME280;29017;51.514;-0.178;2023-04-30T11:31:01;101664.50;;;19.63;51.08
43420;BME280;29017;51.514;-0.178;2023-04-30T11:33:29;101657.50;;;19.62;52.20
43420;BME280;29017;51.514;-0.178;2023-04-30T11:35:57;101650.38;;;19.69;53.91
43420;BME280;29017;51.514;-0.178;2023-04-30T11:38:26;101652.03;;;19.70;53.62
43420;BME280;29017;51.514;-0.178;2023-04-30T11:40:53;101654.97;;;19.75;53.18
43420;BME280;29017;51.514;-0.178;2023-04-30T11:43:22;101650.63;;;19.74;52.76
43420;BME280;29017;51.514;-0.178;2023-04-30T11:45:58;101652.41;;;19.67;51.42
43420;BME280;29017;51.514;-0.178;2023-04-30T11:48:33;101646.88;;;19.69;51.56
43420;BME280;29017;51.514;-0.178;2023-04-30T11:51:02;101644.03;;;19.70;51.21
43420;BME280;29017;51.514;-0.178;2023-04-30T11:53:29;101645.47;;;19.73;50.20
43420;BME280;29017;51.514;-0.178;2023-04-30T11:55:56;101643.63;;;19.73;50.41
43420;BME280;29017;51.514;-0.178;2023-04-30T11:58:27;101632.38;;;19.78;50.13
43420;BME280;29017;51.514;-0.178;2023-04-30T12:00:59;101632.00;;;19.81;50.00
43420;BME280;29017;51.514;-0.178;2023-04-30T12:03:27;101639.03;;;19.88;50.58
43420;BME280;29017;51.514;-0.178;2023-04-30T12:05:54;101633.28;;;19.91;49.72
43420;BME280;29017;51.514;-0.178;2023-04-30T12:08:22;101626.56;;;19.95;49.18
43420;BME280;29017;51.514;-0.178;2023-04-30T12:10:49;101631.50;;;19.98;50.05
43420;BME280;29017;51.514;-0.178;2023-04-30T12:13:16;101635.25;;;20.04;50.73
43420;BME280;29017;51.514;-0.178;2023-04-30T12:15:55;101618.56;;;20.02;48.91
43420;BME280;29017;51.514;-0.178;2023-04-30T12:18:23;101627.66;;;20.07;49.46
43420;BME280;29017;51.514;-0.178;2023-04-30T12:20:50;101631.41;;;20.13;49.60
43420;BME280;29017;51.514;-0.178;2023-04-30T12:23:17;101615.78;;;20.17;48.61
43420;BME280;29017;51.514;-0.178;2023-04-30T12:25:44;101625.50;;;20.24;48.84
43420;BME280;29017;51.514;-0.178;2023-04-30T12:28:13;101628.44;;;20.29;48.64
43420;BME280;29017;51.514;-0.178;2023-04-30T12:30:40;101629.25;;;20.30;48.64
43420;BME280;29017;51.514;-0.178;2023-04-30T12:33:09;101632.13;;;20.28;47.58
43420;BME280;29017;51.514;-0.178;2023-04-30T12:35:40;101629.84;;;20.25;47.86
43420;BME280;29017;51.514;-0.178;2023-04-30T12:38:08;101617.91;;;20.21;47.01
43420;BME280;29017;51.514;-0.178;2023-04-30T12:40:35;101620.34;;;20.16;47.38
43420;BME280;29017;51.514;-0.178;2023-04-30T12:43:03;101623.97;;;20.08;47.08
43420;BME280;29017;51.514;-0.178;2023-04-30T12:48:07;101613.47;;;20.07;48.03
43420;BME280;29017;51.514;-0.178;2023-04-30T12:50:35;101612.28;;;20.10;47.56
43420;BME280;29017;51.514;-0.178;2023-04-30T12:53:02;101609.00;;;20.14;46.61
43420;BME280;29017;51.514;-0.178;2023-04-30T12:55:29;101605.09;;;20.17;47.36
43420;BME280;29017;51.514;-0.178;2023-04-30T13:03:08;101606.41;;;20.27;47.88
43420;BME280;29017;51.514;-0.178;2023-04-30T13:05:35;101610.16;;;20.33;46.36
43420;BME280;29017;51.514;-0.178;2023-04-30T13:08:02;101609.16;;;20.34;46.26
43420;BME280;29017;51.514;-0.178;2023-04-30T13:10:31;101598.88;;;20.37;46.15
43420;BME280;29017;51.514;-0.178;2023-04-30T13:12:58;101598.03;;;20.37;45.78
43420;BME280;29017;51.514;-0.178;2023-04-30T13:15:25;101603.19;;;20.38;45.95
43420;BME280;29017;51.514;-0.178;2023-04-30T13:17:53;101602.00;;;20.41;46.84
43420;BME280;29017;51.514;-0.178;2023-04-30T13:20:20;101597.91;;;20.45;45.97
43420;BME280;29017;51.514;-0.178;2023-04-30T13:22:47;101589.28;;;20.49;44.48
43420;BME280;29017;51.514;-0.178;2023-04-30T13:25:14;101596.28;;;20.51;44.10
43420;BME280;29017;51.514;-0.178;2023-04-30T13:27:41;101597.94;;;20.52;44.54